sensor_id;sensor_type;location;lat;lon;timestamp;P1;durP1;ratioP1;P2;durP2;ratioP2
30966;SDS011;17649;51.836;8.330;2024-03-08T00:01:50;48.90;;;27.37;;
30966;SDS011;17649;51.836;8.330;2024-03-08T00:04:50;48.50;;;27.67;;
30966;SDS011;17649;51.836;8.330;2024-03-08T00:07:50;50.60;;;27.23;;
30966;SDS011;17649;51.836;8.330;2024-03-08T00:10:51;50.57;;;27.67;;
30966;SDS011;17649;51.836;8.330;2024-03-08T00:13:53;50.70;;;28.20;;
30966;SDS011;17649;51.836;8.330;2024-03-08T00:16:54;49.88;;;28.52;;
30966;SDS011;17649;51.836;8.330;2024-03-08T00:19:54;49.15;;;27.30;;
30966;SDS011;17649;51.836;8.330;2024-03-08T00:22:54;46.07;;;27.47;;
30966;SDS011;17649;51.836;8.330;2024-03-08T00:25:57;47.80;;;26.25;;
30966;SDS011;17649;51.836;8.330;2024-03-08T00:28:59;50.93;;;27.60;;
30966;SDS011;17649;51.836;8.330;2024-03-08T00:31:59;48.78;;;28.25;;
30966;SDS011;17649;51.836;8.330;2024-03-08T00:34:59;54.17;;;28.87;;
30966;SDS011;17649;51.836;8.330;2024-03-08T00:38:00;47.60;;;29.03;;
30966;SDS011;17649;51.836;8.330;2024-03-08T00:41:00;51.57;;;29.40;;
30966;SDS011;17649;51.836;8.330;2024-03-08T00:44:02;52.38;;;29.40;;
30966;SDS011;17649;51.836;8.330;2024-03-08T00:47:04;49.33;;;28.35;;
30966;SDS011;17649;51.836;8.330;2024-03-08T00:50:05;56.65;;;29.33;;
30966;SDS011;17649;51.836;8.330;2024-03-08T00:53:06;54.67;;;29.53;;
30966;SDS011;17649;51.836;8.330;2024-03-08T00:56:07;51.50;;;30.42;;
30966;SDS011;17649;51.836;8.330;2024-03-08T00:59:10;56.78;;;30.98;;
30966;SDS011;17649;51.836;8.330;2024-03-08T01:02:10;52.47;;;30.70;;
30966;SDS011;17649;51.836;8.330;2024-03-08T01:05:10;54.00;;;29.20;;
30966;SDS011;17649;51.836;8.330;2024-03-08T01:08:11;57.73;;;31.77;;
30966;SDS011;17649;51.836;8.330;2024-03-08T01:11:13;54.83;;;30.23;;
30966;SDS011;17649;51.836;8.330;2024-03-08T01:14:14;57.15;;;31.35;;
30966;SDS011;17649;51.836;8.330;2024-03-08T01:17:14;58.23;;;30.47;;
30966;SDS011;17649;51.836;8.330;2024-03-08T01:20:14;54.53;;;30.25;;
30966;SDS011;17649;51.836;8.330;2024-03-08T01:23:14;57.70;;;31.77;;
30966;SDS011;17649;51.836;8.330;2024-03-08T01:26:15;65.73;;;32.33;;
30966;SDS011;17649;51.836;8.330;2024-03-08T01:29:16;60.30;;;33.10;;
30966;SDS011;17649;51.836;8.330;2024-03-08T01:32:16;59.72;;;32.17;;
30966;SDS011;17649;51.836;8.330;2024-03-08T01:35:17;56.90;;;32.70;;
30966;SDS011;17649;51.836;8.330;2024-03-08T01:38:21;58.13;;;31.53;;
30966;SDS011;17649;51.836;8.330;2024-03-08T01:41:21;57.47;;;32.33;;
30966;SDS011;17649;51.836;8.330;2024-03-08T01:44:21;57.17;;;32.90;;
30966;SDS011;17649;51.836;8.330;2024-03-08T01:47:22;58.20;;;32.43;;
30966;SDS011;17649;51.836;8.330;2024-03-08T01:50:25;58.80;;;33.05;;
30966;SDS011;17649;51.836;8.330;2024-03-08T01:53:26;55.05;;;32.42;;
30966;SDS011;17649;51.836;8.330;2024-03-08T01:56:27;63.67;;;33.50;;
30966;SDS011;17649;51.836;8.330;2024-03-08T01:59:27;55.88;;;32.15;;
30966;SDS011;17649;51.836;8.330;2024-03-08T02:02:28;64.88;;;33.83;;
30966;SDS011;17649;51.836;8.330;2024-03-08T02:05:32;63.50;;;34.55;;
30966;SDS011;17649;51.836;8.330;2024-03-08T02:08:33;60.03;;;32.67;;
30966;SDS011;17649;51.836;8.330;2024-03-08T02:11:34;61.50;;;33.08;;
30966;SDS011;17649;51.836;8.330;2024-03-08T02:14:36;61.35;;;33.30;;
30966;SDS011;17649;51.836;8.330;2024-03-08T02:17:36;58.70;;;33.53;;
30966;SDS011;17649;51.836;8.330;2024-03-08T02:20:36;60.60;;;33.27;;
30966;SDS011;17649;51.836;8.330;2024-03-08T02:23:37;57.73;;;31.90;;
30966;SDS011;17649;51.836;8.330;2024-03-08T02:26:37;61.28;;;33.42;;
30966;SDS011;17649;51.836;8.330;2024-03-08T02:29:37;59.33;;;32.87;;
30966;SDS011;17649;51.836;8.330;2024-03-08T02:32:40;62.10;;;34.08;;
30966;SDS011;17649;51.836;8.330;2024-03-08T02:35:41;62.90;;;34.87;;
30966;SDS011;17649;51.836;8.330;2024-03-08T02:38:41;62.43;;;36.10;;
30966;SDS011;17649;51.836;8.330;2024-03-08T02:41:41;68.10;;;34.80;;
30966;SDS011;17649;51.836;8.330;2024-03-08T02:44:42;61.72;;;33.00;;
30966;SDS011;17649;51.836;8.330;2024-03-08T02:47:44;60.40;;;33.63;;
30966;SDS011;17649;51.836;8.330;2024-03-08T02:50:44;67.40;;;35.53;;
30966;SDS011;17649;51.836;8.330;2024-03-08T02:53:44;59.83;;;32.57;;
30966;SDS011;17649;51.836;8.330;2024-03-08T02:56:45;59.27;;;32.60;;
30966;SDS011;17649;51.836;8.330;2024-03-08T02:59:51;57.15;;;33.83;;
30966;SDS011;17649;51.836;8.330;2024-03-08T03:02:51;62.97;;;34.30;;
30966;SDS011;17649;51.836;8.330;2024-03-08T03:05:54;63.38;;;33.55;;
30966;SDS011;17649;51.836;8.330;2024-03-08T03:08:55;61.28;;;33.42;;
30966;SDS011;17649;51.836;8.330;2024-03-08T03:11:57;60.03;;;33.17;;
30966;SDS011;17649;51.836;8.330;2024-03-08T03:14:58;62.27;;;33.90;;
30966;SDS011;17649;51.836;8.330;2024-03-08T03:17:58;59.63;;;33.93;;
30966;SDS011;17649;51.836;8.330;2024-03-08T03:20:58;61.40;;;34.80;;
30966;SDS011;17649;51.836;8.330;2024-03-08T03:23:59;63.87;;;34.50;;
30966;SDS011;17649;51.836;8.330;2024-03-08T03:26:59;65.00;;;35.13;;
30966;SDS011;17649;51.836;8.330;2024-03-08T03:29:59;61.40;;;34.10;;
30966;SDS011;17649;51.836;8.330;2024-03-08T03:33:20;64.30;;;34.30;;
30966;SDS011;17649;51.836;8.330;2024-03-08T03:36:21;61.43;;;34.23;;
30966;SDS011;17649;51.836;8.330;2024-03-08T03:39:21;64.88;;;35.50;;
30966;SDS011;17649;51.836;8.330;2024-03-08T03:42:22;64.28;;;34.80;;
30966;SDS011;17649;51.836;8.330;2024-03-08T03:45:24;62.10;;;34.08;;
30966;SDS011;17649;51.836;8.330;2024-03-08T03:48:25;66.72;;;35.63;;
30966;SDS011;17649;51.836;8.330;2024-03-08T03:51:25;65.88;;;35.05;;
30966;SDS011;17649;51.836;8.330;2024-03-08T03:54:26;63.60;;;34.87;;
30966;SDS011;17649;51.836;8.330;2024-03-08T03:57:26;64.40;;;36.57;;
30966;SDS011;17649;51.836;8.330;2024-03-08T04:00:26;62.70;;;35.57;;
30966;SDS011;17649;51.836;8.330;2024-03-08T04:03:27;64.63;;;35.38;;
30966;SDS011;17649;51.836;8.330;2024-03-08T04:06:27;68.77;;;37.30;;
30966;SDS011;17649;51.836;8.330;2024-03-08T04:09:28;74.97;;;36.30;;
30966;SDS011;17649;51.836;8.330;2024-03-08T04:12:28;66.90;;;35.93;;
30966;SDS011;17649;51.836;8.330;2024-03-08T04:15:29;69.65;;;35.95;;
30966;SDS011;17649;51.836;8.330;2024-03-08T04:18:30;67.05;;;36.17;;
30966;SDS011;17649;51.836;8.330;2024-03-08T04:21:30;67.17;;;35.43;;
30966;SDS011;17649;51.836;8.330;2024-03-08T04:24:31;71.23;;;37.97;;
30966;SDS011;17649;51.836;8.330;2024-03-08T04:27:31;67.10;;;36.10;;
30966;SDS011;17649;51.836;8.330;2024-03-08T04:30:32;70.07;;;37.17;;
30966;SDS011;17649;51.836;8.330;2024-03-08T04:33:33;66.60;;;37.83;;
30966;SDS011;17649;51.836;8.330;2024-03-08T04:36:35;68.43;;;36.20;;
30966;SDS011;17649;51.836;8.330;2024-03-08T04:39:35;70.37;;;38.03;;
30966;SDS011;17649;51.836;8.330;2024-03-08T04:42:36;64.80;;;34.73;;
30966;SDS011;17649;51.836;8.330;2024-03-08T04:45:38;73.45;;;38.38;;
30966;SDS011;17649;51.836;8.330;2024-03-08T04:48:39;72.72;;;38.35;;
30966;SDS011;17649;51.836;8.330;2024-03-08T04:51:41;68.50;;;36.80;;
30966;SDS011;17649;51.836;8.330;2024-03-08T04:54:42;71.17;;;37.20;;
30966;SDS011;17649;51.836;8.330;2024-03-08T04:57:44;70.93;;;35.85;;
30966;SDS011;17649;51.836;8.330;2024-03-08T05:00:46;66.80;;;36.67;;
30966;SDS011;17649;51.836;8.330;2024-03-08T05:03:46;68.33;;;36.63;;
30966;SDS011;17649;51.836;8.330;2024-03-08T05:06:49;71.77;;;36.90;;
30966;SDS011;17649;51.836;8.330;2024-03-08T05:09:50;71.00;;;37.00;;
30966;SDS011;17649;51.836;8.330;2024-03-08T05:12:51;68.43;;;36.83;;
30966;SDS011;17649;51.836;8.330;2024-03-08T05:15:52;69.30;;;36.78;;
30966;SDS011;17649;51.836;8.330;2024-03-08T05:18:52;71.70;;;37.13;;
30966;SDS011;17649;51.836;8.330;2024-03-08T05:21:52;72.80;;;37.13;;
30966;SDS011;17649;51.836;8.330;2024-03-08T05:24:53;71.18;;;38.13;;
30966;SDS011;17649;51.836;8.330;2024-03-08T05:27:53;69.30;;;36.30;;
30966;SDS011;17649;51.836;8.330;2024-03-08T05:30:55;72.32;;;37.92;;
30966;SDS011;17649;51.836;8.330;2024-03-08T05:33:56;73.10;;;38.57;;
30966;SDS011;17649;51.836;8.330;2024-03-08T05:36:57;71.43;;;38.83;;
30966;SDS011;17649;51.836;8.330;2024-03-08T05:39:58;69.38;;;37.15;;
30966;SDS011;17649;51.836;8.330;2024-03-08T05:42:58;75.63;;;37.97;;
30966;SDS011;17649;51.836;8.330;2024-03-08T05:46:02;74.05;;;37.58;;
30966;SDS011;17649;51.836;8.330;2024-03-08T05:49:04;70.15;;;36.97;;
30966;SDS011;17649;51.836;8.330;2024-03-08T05:52:06;75.10;;;37.05;;
30966;SDS011;17649;51.836;8.330;2024-03-08T05:55:06;77.53;;;38.87;;
30966;SDS011;17649;51.836;8.330;2024-03-08T05:58:09;74.93;;;37.13;;
30966;SDS011;17649;51.836;8.330;2024-03-08T06:01:11;79.25;;;40.30;;
30966;SDS011;17649;51.836;8.330;2024-03-08T06:04:12;71.40;;;37.37;;
30966;SDS011;17649;51.836;8.330;2024-03-08T06:07:14;71.63;;;37.20;;
30966;SDS011;17649;51.836;8.330;2024-03-08T06:10:14;78.73;;;40.73;;
30966;SDS011;17649;51.836;8.330;2024-03-08T06:13:17;76.05;;;38.72;;
30966;SDS011;17649;51.836;8.330;2024-03-08T06:16:17;75.50;;;38.43;;
30966;SDS011;17649;51.836;8.330;2024-03-08T06:19:17;79.23;;;39.07;;
30966;SDS011;17649;51.836;8.330;2024-03-08T06:22:18;81.47;;;40.40;;
30966;SDS011;17649;51.836;8.330;2024-03-08T06:25:19;76.00;;;38.47;;
30966;SDS011;17649;51.836;8.330;2024-03-08T06:28:21;74.30;;;37.35;;
30966;SDS011;17649;51.836;8.330;2024-03-08T06:31:21;76.60;;;39.37;;
30966;SDS011;17649;51.836;8.330;2024-03-08T06:34:22;75.50;;;37.97;;
30966;SDS011;17649;51.836;8.330;2024-03-08T06:37:22;70.33;;;36.33;;
30966;SDS011;17649;51.836;8.330;2024-03-08T06:40:23;78.60;;;38.03;;
30966;SDS011;17649;51.836;8.330;2024-03-08T06:43:24;72.10;;;36.67;;
30966;SDS011;17649;51.836;8.330;2024-03-08T06:46:32;69.00;;;36.58;;
30966;SDS011;17649;51.836;8.330;2024-03-08T06:49:34;65.10;;;35.45;;
30966;SDS011;17649;51.836;8.330;2024-03-08T06:52:34;64.90;;;34.60;;
30966;SDS011;17649;51.836;8.330;2024-03-08T06:55:34;69.80;;;36.17;;
30966;SDS011;17649;51.836;8.330;2024-03-08T06:58:35;67.47;;;36.50;;
30966;SDS011;17649;51.836;8.330;2024-03-08T07:01:35;78.27;;;36.93;;
30966;SDS011;17649;51.836;8.330;2024-03-08T07:04:36;71.40;;;35.63;;
30966;SDS011;17649;51.836;8.330;2024-03-08T07:07:38;71.55;;;37.05;;
30966;SDS011;17649;51.836;8.330;2024-03-08T07:10:38;67.10;;;34.60;;
30966;SDS011;17649;51.836;8.330;2024-03-08T07:13:41;72.00;;;37.17;;
30966;SDS011;17649;51.836;8.330;2024-03-08T07:16:42;77.33;;;37.23;;
30966;SDS011;17649;51.836;8.330;2024-03-08T07:19:42;74.70;;;36.77;;
30966;SDS011;17649;51.836;8.330;2024-03-08T07:22:42;68.80;;;37.63;;
30966;SDS011;17649;51.836;8.330;2024-03-08T07:25:42;65.57;;;34.87;;
30966;SDS011;17649;51.836;8.330;2024-03-08T07:28:43;69.30;;;35.47;;
30966;SDS011;17649;51.836;8.330;2024-03-08T07:31:43;68.37;;;36.23;;
30966;SDS011;17649;51.836;8.330;2024-03-08T07:35:02;67.03;;;36.47;;
30966;SDS011;17649;51.836;8.330;2024-03-08T07:38:07;72.35;;;37.58;;
30966;SDS011;17649;51.836;8.330;2024-03-08T07:41:09;73.95;;;38.00;;
30966;SDS011;17649;51.836;8.330;2024-03-08T07:44:09;67.53;;;35.40;;
30966;SDS011;17649;51.836;8.330;2024-03-08T07:47:10;72.07;;;35.70;;
30966;SDS011;17649;51.836;8.330;2024-03-08T07:50:10;70.13;;;35.07;;
30966;SDS011;17649;51.836;8.330;2024-03-08T07:53:11;65.87;;;36.33;;
30966;SDS011;17649;51.836;8.330;2024-03-08T07:56:11;76.87;;;36.47;;
30966;SDS011;17649;51.836;8.330;2024-03-08T07:59:13;68.10;;;36.20;;
30966;SDS011;17649;51.836;8.330;2024-03-08T08:02:13;76.55;;;37.25;;
30966;SDS011;17649;51.836;8.330;2024-03-08T08:05:14;66.10;;;35.40;;
30966;SDS011;17649;51.836;8.330;2024-03-08T08:08:14;68.40;;;36.33;;
30966;SDS011;17649;51.836;8.330;2024-03-08T08:11:15;67.47;;;35.57;;
30966;SDS011;17649;51.836;8.330;2024-03-08T08:14:15;72.63;;;38.22;;
30966;SDS011;17649;51.836;8.330;2024-03-08T08:17:16;65.70;;;34.27;;
30966;SDS011;17649;51.836;8.330;2024-03-08T08:20:16;66.38;;;34.55;;
30966;SDS011;17649;51.836;8.330;2024-03-08T08:23:18;66.50;;;34.78;;
30966;SDS011;17649;51.836;8.330;2024-03-08T08:26:19;67.30;;;33.57;;
30966;SDS011;17649;51.836;8.330;2024-03-08T08:29:21;65.75;;;36.60;;
30966;SDS011;17649;51.836;8.330;2024-03-08T08:32:22;65.60;;;35.95;;
30966;SDS011;17649;51.836;8.330;2024-03-08T08:35:23;68.90;;;37.20;;
30966;SDS011;17649;51.836;8.330;2024-03-08T08:38:24;66.28;;;34.42;;
30966;SDS011;17649;51.836;8.330;2024-03-08T08:41:24;65.97;;;35.78;;
30966;SDS011;17649;51.836;8.330;2024-03-08T08:44:26;68.00;;;33.87;;
30966;SDS011;17649;51.836;8.330;2024-03-08T08:47:28;67.05;;;34.83;;
30966;SDS011;17649;51.836;8.330;2024-03-08T08:50:29;68.80;;;35.67;;
30966;SDS011;17649;51.836;8.330;2024-03-08T08:53:29;66.53;;;34.97;;
30966;SDS011;17649;51.836;8.330;2024-03-08T08:56:29;63.22;;;33.60;;
30966;SDS011;17649;51.836;8.330;2024-03-08T08:59:30;65.97;;;34.67;;
30966;SDS011;17649;51.836;8.330;2024-03-08T09:02:30;62.03;;;34.97;;
30966;SDS011;17649;51.836;8.330;2024-03-08T09:05:30;63.70;;;34.08;;
30966;SDS011;17649;51.836;8.330;2024-03-08T09:08:31;59.63;;;32.67;;
30966;SDS011;17649;51.836;8.330;2024-03-08T09:11:31;61.93;;;32.40;;
30966;SDS011;17649;51.836;8.330;2024-03-08T09:14:31;60.47;;;32.70;;
30966;SDS011;17649;51.836;8.330;2024-03-08T09:17:32;58.20;;;32.67;;
30966;SDS011;17649;51.836;8.330;2024-03-08T09:20:33;61.65;;;32.90;;
30966;SDS011;17649;51.836;8.330;2024-03-08T09:23:33;58.43;;;32.40;;
30966;SDS011;17649;51.836;8.330;2024-03-08T09:26:34;62.63;;;33.57;;
30966;SDS011;17649;51.836;8.330;2024-03-08T09:29:34;60.00;;;34.43;;
30966;SDS011;17649;51.836;8.330;2024-03-08T09:32:35;60.30;;;33.92;;
30966;SDS011;17649;51.836;8.330;2024-03-08T09:35:36;60.58;;;32.50;;
30966;SDS011;17649;51.836;8.330;2024-03-08T09:38:38;56.95;;;31.17;;
30966;SDS011;17649;51.836;8.330;2024-03-08T09:41:39;57.75;;;32.30;;
30966;SDS011;17649;51.836;8.330;2024-03-08T09:44:39;54.33;;;31.47;;
30966;SDS011;17649;51.836;8.330;2024-03-08T09:47:40;58.28;;;31.38;;
30966;SDS011;17649;51.836;8.330;2024-03-08T09:50:42;53.70;;;30.73;;
30966;SDS011;17649;51.836;8.330;2024-03-08T09:53:42;53.67;;;30.85;;
30966;SDS011;17649;51.836;8.330;2024-03-08T09:56:43;53.10;;;30.27;;
30966;SDS011;17649;51.836;8.330;2024-03-08T09:59:44;55.72;;;29.98;;
30966;SDS011;17649;51.836;8.330;2024-03-08T10:02:48;52.00;;;29.77;;
30966;SDS011;17649;51.836;8.330;2024-03-08T10:05:50;56.20;;;30.17;;
30966;SDS011;17649;51.836;8.330;2024-03-08T10:08:50;59.20;;;29.77;;
30966;SDS011;17649;51.836;8.330;2024-03-08T10:11:53;54.92;;;29.40;;
30966;SDS011;17649;51.836;8.330;2024-03-08T10:14:56;52.83;;;29.75;;
30966;SDS011;17649;51.836;8.330;2024-03-08T10:17:58;48.55;;;28.27;;
30966;SDS011;17649;51.836;8.330;2024-03-08T10:21:05;51.30;;;28.88;;
30966;SDS011;17649;51.836;8.330;2024-03-08T10:24:10;57.58;;;28.25;;
30966;SDS011;17649;51.836;8.330;2024-03-08T10:27:10;48.72;;;27.35;;
30966;SDS011;17649;51.836;8.330;2024-03-08T10:30:14;50.03;;;28.30;;
30966;SDS011;17649;51.836;8.330;2024-03-08T10:33:19;46.45;;;27.10;;
30966;SDS011;17649;51.836;8.330;2024-03-08T10:36:20;50.20;;;28.50;;
30966;SDS011;17649;51.836;8.330;2024-03-08T10:39:23;49.90;;;28.63;;
30966;SDS011;17649;51.836;8.330;2024-03-08T10:42:26;46.50;;;27.05;;
30966;SDS011;17649;51.836;8.330;2024-03-08T10:45:35;44.47;;;26.67;;
30966;SDS011;17649;51.836;8.330;2024-03-08T10:48:43;46.30;;;26.38;;
30966;SDS011;17649;51.836;8.330;2024-03-08T10:51:44;48.17;;;27.25;;
30966;SDS011;17649;51.836;8.330;2024-03-08T10:54:47;45.95;;;25.48;;
30966;SDS011;17649;51.836;8.330;2024-03-08T10:57:49;46.73;;;25.97;;
30966;SDS011;17649;51.836;8.330;2024-03-08T11:00:49;43.40;;;25.30;;
30966;SDS011;17649;51.836;8.330;2024-03-08T11:03:50;43.00;;;24.53;;
30966;SDS011;17649;51.836;8.330;2024-03-08T11:06:53;45.15;;;24.80;;
30966;SDS011;17649;51.836;8.330;2024-03-08T11:09:53;49.65;;;26.20;;
30966;SDS011;17649;51.836;8.330;2024-03-08T11:12:54;42.03;;;24.10;;
30966;SDS011;17649;51.836;8.330;2024-03-08T11:15:54;41.73;;;24.10;;
30966;SDS011;17649;51.836;8.330;2024-03-08T11:18:58;39.53;;;23.63;;
30966;SDS011;17649;51.836;8.330;2024-03-08T11:22:23;35.85;;;22.33;;
30966;SDS011;17649;51.836;8.330;2024-03-08T11:25:31;37.38;;;22.48;;
30966;SDS011;17649;51.836;8.330;2024-03-08T11:28:32;41.42;;;23.17;;
30966;SDS011;17649;51.836;8.330;2024-03-08T11:31:32;41.27;;;23.67;;
30966;SDS011;17649;51.836;8.330;2024-03-08T11:34:34;43.00;;;24.57;;
30966;SDS011;17649;51.836;8.330;2024-03-08T11:37:35;43.10;;;23.37;;
30966;SDS011;17649;51.836;8.330;2024-03-08T11:40:36;38.38;;;23.50;;
30966;SDS011;17649;51.836;8.330;2024-03-08T11:43:36;35.63;;;21.83;;
30966;SDS011;17649;51.836;8.330;2024-03-08T11:46:36;38.35;;;23.15;;
30966;SDS011;17649;51.836;8.330;2024-03-08T11:49:38;39.80;;;22.75;;
30966;SDS011;17649;51.836;8.330;2024-03-08T11:52:40;40.33;;;22.13;;
30966;SDS011;17649;51.836;8.330;2024-03-08T11:55:40;38.13;;;22.40;;
30966;SDS011;17649;51.836;8.330;2024-03-08T11:58:51;38.20;;;22.90;;
30966;SDS011;17649;51.836;8.330;2024-03-08T12:01:58;38.90;;;21.60;;
30966;SDS011;17649;51.836;8.330;2024-03-08T12:04:59;35.78;;;22.40;;
30966;SDS011;17649;51.836;8.330;2024-03-08T12:08:01;38.22;;;22.38;;
30966;SDS011;17649;51.836;8.330;2024-03-08T12:11:03;38.45;;;22.40;;
30966;SDS011;17649;51.836;8.330;2024-03-08T12:14:04;41.95;;;23.20;;
30966;SDS011;17649;51.836;8.330;2024-03-08T12:17:06;35.97;;;22.27;;
30966;SDS011;17649;51.836;8.330;2024-03-08T12:20:25;36.90;;;23.00;;
30966;SDS011;17649;51.836;8.330;2024-03-08T12:23:27;34.20;;;20.77;;
30966;SDS011;17649;51.836;8.330;2024-03-08T12:26:27;33.73;;;21.63;;
30966;SDS011;17649;51.836;8.330;2024-03-08T12:29:27;32.70;;;21.43;;
30966;SDS011;17649;51.836;8.330;2024-03-08T12:32:28;37.50;;;22.33;;
30966;SDS011;17649;51.836;8.330;2024-03-08T12:35:29;41.10;;;21.85;;
30966;SDS011;17649;51.836;8.330;2024-03-08T12:38:31;39.70;;;22.85;;
30966;SDS011;17649;51.836;8.330;2024-03-08T12:41:33;40.43;;;21.97;;
30966;SDS011;17649;51.836;8.330;2024-03-08T12:44:39;34.88;;;21.63;;
30966;SDS011;17649;51.836;8.330;2024-03-08T12:47:43;34.65;;;22.23;;
30966;SDS011;17649;51.836;8.330;2024-03-08T12:50:44;36.90;;;22.10;;
30966;SDS011;17649;51.836;8.330;2024-03-08T12:53:45;38.83;;;22.40;;
30966;SDS011;17649;51.836;8.330;2024-03-08T12:56:45;34.87;;;21.77;;
30966;SDS011;17649;51.836;8.330;2024-03-08T12:59:47;43.65;;;22.52;;
30966;SDS011;17649;51.836;8.330;2024-03-08T13:02:49;37.92;;;22.13;;
30966;SDS011;17649;51.836;8.330;2024-03-08T13:05:51;40.33;;;23.02;;
30966;SDS011;17649;51.836;8.330;2024-03-08T13:08:51;36.87;;;22.93;;
30966;SDS011;17649;51.836;8.330;2024-03-08T13:11:52;35.27;;;22.23;;
30966;SDS011;17649;51.836;8.330;2024-03-08T13:14:54;34.20;;;21.83;;
30966;SDS011;17649;51.836;8.330;2024-03-08T13:17:56;38.03;;;23.67;;
30966;SDS011;17649;51.836;8.330;2024-03-08T13:20:59;38.13;;;24.02;;
30966;SDS011;17649;51.836;8.330;2024-03-08T13:24:05;33.42;;;22.90;;
30966;SDS011;17649;51.836;8.330;2024-03-08T13:27:06;32.80;;;22.37;;
30966;SDS011;17649;51.836;8.330;2024-03-08T13:30:16;35.97;;;23.83;;
30966;SDS011;17649;51.836;8.330;2024-03-08T13:33:18;35.78;;;23.02;;
30966;SDS011;17649;51.836;8.330;2024-03-08T13:36:22;37.38;;;23.63;;
30966;SDS011;17649;51.836;8.330;2024-03-08T13:39:23;34.55;;;22.77;;
30966;SDS011;17649;51.836;8.330;2024-03-08T13:42:25;35.53;;;23.58;;
30966;SDS011;17649;51.836;8.330;2024-03-08T13:45:27;34.25;;;22.25;;
30966;SDS011;17649;51.836;8.330;2024-03-08T13:48:28;38.90;;;23.33;;
30966;SDS011;17649;51.836;8.330;2024-03-08T13:51:29;40.33;;;22.70;;
30966;SDS011;17649;51.836;8.330;2024-03-08T13:54:30;36.60;;;22.85;;
30966;SDS011;17649;51.836;8.330;2024-03-08T13:57:32;34.78;;;22.42;;
30966;SDS011;17649;51.836;8.330;2024-03-08T14:00:32;34.20;;;22.67;;
30966;SDS011;17649;51.836;8.330;2024-03-08T14:03:33;35.63;;;23.00;;
30966;SDS011;17649;51.836;8.330;2024-03-08T14:06:34;36.27;;;23.40;;
30966;SDS011;17649;51.836;8.330;2024-03-08T14:09:35;35.55;;;22.70;;
30966;SDS011;17649;51.836;8.330;2024-03-08T14:12:37;37.97;;;23.42;;
30966;SDS011;17649;51.836;8.330;2024-03-08T14:15:38;35.92;;;23.13;;
30966;SDS011;17649;51.836;8.330;2024-03-08T14:18:42;42.35;;;24.65;;
30966;SDS011;17649;51.836;8.330;2024-03-08T14:21:42;37.33;;;23.60;;
30966;SDS011;17649;51.836;8.330;2024-03-08T14:24:43;37.47;;;23.30;;
30966;SDS011;17649;51.836;8.330;2024-03-08T14:27:45;39.90;;;24.35;;
30966;SDS011;17649;51.836;8.330;2024-03-08T14:30:45;36.20;;;23.25;;
30966;SDS011;17649;51.836;8.330;2024-03-08T14:33:46;37.93;;;23.37;;
30966;SDS011;17649;51.836;8.330;2024-03-08T14:36:49;36.20;;;23.13;;
30966;SDS011;17649;51.836;8.330;2024-03-08T14:39:49;39.00;;;23.20;;
30966;SDS011;17649;51.836;8.330;2024-03-08T14:42:52;33.78;;;22.30;;
30966;SDS011;17649;51.836;8.330;2024-03-08T14:45:53;34.28;;;21.90;;
30966;SDS011;17649;51.836;8.330;2024-03-08T14:48:53;34.10;;;21.03;;
30966;SDS011;17649;51.836;8.330;2024-03-08T14:51:53;35.23;;;21.73;;
30966;SDS011;17649;51.836;8.330;2024-03-08T14:54:57;39.00;;;21.60;;
30966;SDS011;17649;51.836;8.330;2024-03-08T14:57:58;38.47;;;23.37;;
30966;SDS011;17649;51.836;8.330;2024-03-08T15:00:58;37.50;;;22.53;;
30966;SDS011;17649;51.836;8.330;2024-03-08T15:04:00;42.03;;;23.33;;
30966;SDS011;17649;51.836;8.330;2024-03-08T15:07:08;41.55;;;23.60;;
30966;SDS011;17649;51.836;8.330;2024-03-08T15:10:09;43.35;;;23.33;;
30966;SDS011;17649;51.836;8.330;2024-03-08T15:13:14;40.65;;;23.45;;
30966;SDS011;17649;51.836;8.330;2024-03-08T15:16:20;41.47;;;22.73;;
30966;SDS011;17649;51.836;8.330;2024-03-08T15:19:23;42.05;;;23.42;;
30966;SDS011;17649;51.836;8.330;2024-03-08T15:22:25;41.47;;;23.45;;
30966;SDS011;17649;51.836;8.330;2024-03-08T15:25:25;42.50;;;22.77;;
30966;SDS011;17649;51.836;8.330;2024-03-08T15:28:26;42.23;;;23.50;;
30966;SDS011;17649;51.836;8.330;2024-03-08T15:31:35;44.90;;;24.45;;
30966;SDS011;17649;51.836;8.330;2024-03-08T15:34:38;40.05;;;23.80;;
30966;SDS011;17649;51.836;8.330;2024-03-08T15:37:42;40.50;;;24.33;;
30966;SDS011;17649;51.836;8.330;2024-03-08T15:40:43;42.85;;;24.52;;
30966;SDS011;17649;51.836;8.330;2024-03-08T15:43:44;45.50;;;25.08;;
30966;SDS011;17649;51.836;8.330;2024-03-08T15:46:44;49.00;;;25.67;;
30966;SDS011;17649;51.836;8.330;2024-03-08T15:49:46;42.72;;;24.50;;
30966;SDS011;17649;51.836;8.330;2024-03-08T15:52:46;47.20;;;24.73;;
30966;SDS011;17649;51.836;8.330;2024-03-08T15:55:47;42.40;;;24.05;;
30966;SDS011;17649;51.836;8.330;2024-03-08T15:58:48;48.27;;;25.63;;
30966;SDS011;17649;51.836;8.330;2024-03-08T16:01:48;45.10;;;23.47;;
30966;SDS011;17649;51.836;8.330;2024-03-08T16:04:52;43.40;;;24.20;;
30966;SDS011;17649;51.836;8.330;2024-03-08T16:07:53;46.23;;;24.70;;
30966;SDS011;17649;51.836;8.330;2024-03-08T16:10:55;45.15;;;24.23;;
30966;SDS011;17649;51.836;8.330;2024-03-08T16:13:56;44.55;;;24.98;;
30966;SDS011;17649;51.836;8.330;2024-03-08T16:16:57;44.92;;;24.42;;
30966;SDS011;17649;51.836;8.330;2024-03-08T16:19:58;45.10;;;24.63;;
30966;SDS011;17649;51.836;8.330;2024-03-08T16:22:59;46.13;;;26.27;;
30966;SDS011;17649;51.836;8.330;2024-03-08T16:25:59;45.60;;;26.03;;
30966;SDS011;17649;51.836;8.330;2024-03-08T16:28:59;50.57;;;27.17;;
30966;SDS011;17649;51.836;8.330;2024-03-08T16:32:02;51.20;;;26.25;;
30966;SDS011;17649;51.836;8.330;2024-03-08T16:35:03;48.93;;;26.50;;
30966;SDS011;17649;51.836;8.330;2024-03-08T16:38:07;47.40;;;27.85;;
30966;SDS011;17649;51.836;8.330;2024-03-08T16:41:07;49.13;;;26.27;;
30966;SDS011;17649;51.836;8.330;2024-03-08T16:44:08;47.17;;;27.27;;
30966;SDS011;17649;51.836;8.330;2024-03-08T16:47:09;50.37;;;27.23;;
30966;SDS011;17649;51.836;8.330;2024-03-08T16:50:11;47.47;;;26.33;;
30966;SDS011;17649;51.836;8.330;2024-03-08T16:53:15;50.60;;;28.45;;
30966;SDS011;17649;51.836;8.330;2024-03-08T16:56:16;51.97;;;27.33;;
30966;SDS011;17649;51.836;8.330;2024-03-08T16:59:17;50.08;;;27.80;;
30966;SDS011;17649;51.836;8.330;2024-03-08T17:02:18;51.83;;;29.00;;
30966;SDS011;17649;51.836;8.330;2024-03-08T17:05:18;51.60;;;27.97;;
30966;SDS011;17649;51.836;8.330;2024-03-08T17:08:19;53.40;;;30.17;;
30966;SDS011;17649;51.836;8.330;2024-03-08T17:11:19;52.10;;;29.45;;
30966;SDS011;17649;51.836;8.330;2024-03-08T17:14:19;49.10;;;28.13;;
30966;SDS011;17649;51.836;8.330;2024-03-08T17:17:21;52.17;;;28.23;;
30966;SDS011;17649;51.836;8.330;2024-03-08T17:20:21;58.43;;;29.10;;
30966;SDS011;17649;51.836;8.330;2024-03-08T17:23:22;50.85;;;27.58;;
30966;SDS011;17649;51.836;8.330;2024-03-08T17:26:24;52.70;;;27.75;;
30966;SDS011;17649;51.836;8.330;2024-03-08T17:29:25;51.22;;;27.67;;
30966;SDS011;17649;51.836;8.330;2024-03-08T17:32:25;53.53;;;27.52;;
30966;SDS011;17649;51.836;8.330;2024-03-08T17:35:27;55.80;;;28.70;;
30966;SDS011;17649;51.836;8.330;2024-03-08T17:38:28;54.47;;;28.10;;
30966;SDS011;17649;51.836;8.330;2024-03-08T17:41:29;51.57;;;28.80;;